sensor_id;sensor_type;location;lat;lon;timestamp;P1;durP1;ratioP1;P2;durP2;ratioP2
787;SDS011;16074;42.708;23.312;2022-12-11T00:01:09;14.48;;;11.18;;
787;SDS011;16074;42.708;23.312;2022-12-11T00:03:38;13.73;;;11.68;;
787;SDS011;16074;42.708;23.312;2022-12-11T00:06:07;14.70;;;13.13;;
787;SDS011;16074;42.708;23.312;2022-12-11T00:08:37;16.02;;;13.15;;
787;SDS011;16074;42.708;23.312;2022-12-11T00:11:08;20.60;;;13.98;;
787;SDS011;16074;42.708;23.312;2022-12-11T00:13:36;15.07;;;12.80;;
787;SDS011;16074;42.708;23.312;2022-12-11T00:16:05;16.90;;;13.95;;
787;SDS011;16074;42.708;23.312;2022-12-11T00:18:34;15.00;;;13.30;;
787;SDS011;16074;42.708;23.312;2022-12-11T00:21:03;18.42;;;15.38;;
787;SDS011;16074;42.708;23.312;2022-12-11T00:23:34;16.98;;;13.50;;
787;SDS011;16074;42.708;23.312;2022-12-11T00:26:04;20.17;;;14.20;;
787;SDS011;16074;42.708;23.312;2022-12-11T00:28:35;17.95;;;13.77;;
787;SDS011;16074;42.708;23.312;2022-12-11T00:31:03;14.68;;;13.20;;
787;SDS011;16074;42.708;23.312;2022-12-11T00:33:32;14.10;;;10.70;;
787;SDS011;16074;42.708;23.312;2022-12-11T00:36:01;14.35;;;11.82;;
787;SDS011;16074;42.708;23.312;2022-12-11T00:38:29;16.63;;;11.98;;
787;SDS011;16074;42.708;23.312;2022-12-11T00:40:58;15.93;;;12.00;;
787;SDS011;16074;42.708;23.312;2022-12-11T00:43:26;15.30;;;12.65;;
787;SDS011;16074;42.708;23.312;2022-12-11T00:45:55;16.65;;;11.77;;
787;SDS011;16074;42.708;23.312;2022-12-11T00:48:25;14.55;;;12.20;;
787;SDS011;16074;42.708;23.312;2022-12-11T00:50:53;16.23;;;13.75;;
787;SDS011;16074;42.708;23.312;2022-12-11T00:53:21;14.05;;;12.43;;
787;SDS011;16074;42.708;23.312;2022-12-11T00:55:50;20.75;;;13.43;;
787;SDS011;16074;42.708;23.312;2022-12-11T00:58:18;18.08;;;14.50;;
787;SDS011;16074;42.708;23.312;2022-12-11T01:00:46;19.30;;;15.05;;
787;SDS011;16074;42.708;23.312;2022-12-11T01:03:16;19.02;;;13.18;;
787;SDS011;16074;42.708;23.312;2022-12-11T01:05:51;13.75;;;12.13;;
787;SDS011;16074;42.708;23.312;2022-12-11T01:08:20;16.23;;;12.18;;
787;SDS011;16074;42.708;23.312;2022-12-11T01:10:49;16.30;;;12.27;;
787;SDS011;16074;42.708;23.312;2022-12-11T01:13:16;17.60;;;13.70;;
787;SDS011;16074;42.708;23.312;2022-12-11T01:15:46;14.23;;;12.70;;
787;SDS011;16074;42.708;23.312;2022-12-11T01:18:14;16.08;;;12.45;;
787;SDS011;16074;42.708;23.312;2022-12-11T01:20:44;14.80;;;12.77;;
787;SDS011;16074;42.708;23.312;2022-12-11T01:23:12;15.38;;;11.90;;
787;SDS011;16074;42.708;23.312;2022-12-11T01:25:40;16.15;;;10.50;;
787;SDS011;16074;42.708;23.312;2022-12-11T01:28:09;16.17;;;10.57;;
787;SDS011;16074;42.708;23.312;2022-12-11T01:30:39;15.95;;;11.65;;
787;SDS011;16074;42.708;23.312;2022-12-11T01:33:08;13.00;;;10.90;;
787;SDS011;16074;42.708;23.312;2022-12-11T01:35:37;16.92;;;13.82;;
787;SDS011;16074;42.708;23.312;2022-12-11T01:38:07;12.60;;;11.00;;
787;SDS011;16074;42.708;23.312;2022-12-11T01:40:37;7.18;;;5.75;;
787;SDS011;16074;42.708;23.312;2022-12-11T01:43:07;11.73;;;9.20;;
787;SDS011;16074;42.708;23.312;2022-12-11T01:45:38;13.02;;;8.40;;
787;SDS011;16074;42.708;23.312;2022-12-11T01:48:10;10.27;;;9.00;;
787;SDS011;16074;42.708;23.312;2022-12-11T01:50:43;10.20;;;9.20;;
787;SDS011;16074;42.708;23.312;2022-12-11T01:53:16;13.23;;;9.27;;
787;SDS011;16074;42.708;23.312;2022-12-11T01:55:47;13.25;;;8.88;;
787;SDS011;16074;42.708;23.312;2022-12-11T01:58:20;6.38;;;5.82;;
787;SDS011;16074;42.708;23.312;2022-12-11T02:00:51;9.00;;;6.70;;
787;SDS011;16074;42.708;23.312;2022-12-11T02:03:20;6.43;;;5.82;;
787;SDS011;16074;42.708;23.312;2022-12-11T02:05:49;9.68;;;6.47;;
787;SDS011;16074;42.708;23.312;2022-12-11T02:08:18;12.65;;;6.70;;
787;SDS011;16074;42.708;23.312;2022-12-11T02:10:50;8.73;;;7.18;;
787;SDS011;16074;42.708;23.312;2022-12-11T02:13:29;9.35;;;7.88;;
787;SDS011;16074;42.708;23.312;2022-12-11T02:16:04;10.98;;;7.88;;
787;SDS011;16074;42.708;23.312;2022-12-11T02:18:41;7.53;;;6.78;;
787;SDS011;16074;42.708;23.312;2022-12-11T02:21:19;7.47;;;6.85;;
787;SDS011;16074;42.708;23.312;2022-12-11T02:26:58;9.23;;;8.20;;
787;SDS011;16074;42.708;23.312;2022-12-11T02:29:41;8.02;;;6.80;;
787;SDS011;16074;42.708;23.312;2022-12-11T02:32:15;12.82;;;8.45;;
787;SDS011;16074;42.708;23.312;2022-12-11T02:34:48;5.20;;;4.80;;
787;SDS011;16074;42.708;23.312;2022-12-11T02:37:22;5.80;;;4.82;;
787;SDS011;16074;42.708;23.312;2022-12-11T02:39:53;3.35;;;3.05;;
787;SDS011;16074;42.708;23.312;2022-12-11T02:42:24;4.00;;;3.05;;
787;SDS011;16074;42.708;23.312;2022-12-11T02:44:59;5.45;;;3.78;;
787;SDS011;16074;42.708;23.312;2022-12-11T02:47:29;3.75;;;3.42;;
787;SDS011;16074;42.708;23.312;2022-12-11T02:50:00;2.58;;;2.38;;
787;SDS011;16074;42.708;23.312;2022-12-11T02:52:31;2.67;;;2.47;;
787;SDS011;16074;42.708;23.312;2022-12-11T02:55:01;2.55;;;2.35;;
787;SDS011;16074;42.708;23.312;2022-12-11T02:57:35;1.88;;;1.77;;
787;SDS011;16074;42.708;23.312;2022-12-11T03:00:11;3.72;;;3.42;;
787;SDS011;16074;42.708;23.312;2022-12-11T03:02:40;6.00;;;5.38;;
787;SDS011;16074;42.708;23.312;2022-12-11T03:05:08;3.60;;;2.85;;
787;SDS011;16074;42.708;23.312;2022-12-11T03:07:39;4.05;;;3.65;;
787;SDS011;16074;42.708;23.312;2022-12-11T03:10:10;1.80;;;1.70;;
787;SDS011;16074;42.708;23.312;2022-12-11T03:12:41;4.32;;;2.00;;
787;SDS011;16074;42.708;23.312;2022-12-11T03:15:21;2.53;;;1.67;;
787;SDS011;16074;42.708;23.312;2022-12-11T03:17:58;1.63;;;1.52;;
787;SDS011;16074;42.708;23.312;2022-12-11T03:20:33;1.10;;;1.10;;
787;SDS011;16074;42.708;23.312;2022-12-11T03:23:07;1.35;;;1.25;;
787;SDS011;16074;42.708;23.312;2022-12-11T03:25:42;1.20;;;1.10;;
787;SDS011;16074;42.708;23.312;2022-12-11T03:28:18;1.45;;;1.10;;
787;SDS011;16074;42.708;23.312;2022-12-11T03:30:52;1.17;;;1.15;;
787;SDS011;16074;42.708;23.312;2022-12-11T03:33:22;2.08;;;1.30;;
787;SDS011;16074;42.708;23.312;2022-12-11T03:35:54;1.30;;;1.30;;
787;SDS011;16074;42.708;23.312;2022-12-11T03:38:27;2.00;;;0.88;;
787;SDS011;16074;42.708;23.312;2022-12-11T03:40:59;1.25;;;1.10;;
787;SDS011;16074;42.708;23.312;2022-12-11T03:43:30;2.05;;;1.30;;
787;SDS011;16074;42.708;23.312;2022-12-11T03:46:02;1.23;;;1.13;;
787;SDS011;16074;42.708;23.312;2022-12-11T03:48:32;1.15;;;1.15;;
787;SDS011;16074;42.708;23.312;2022-12-11T03:51:04;0.90;;;0.90;;
787;SDS011;16074;42.708;23.312;2022-12-11T03:53:33;2.60;;;2.40;;
787;SDS011;16074;42.708;23.312;2022-12-11T03:56:03;3.23;;;2.00;;
787;SDS011;16074;42.708;23.312;2022-12-11T03:58:35;1.30;;;1.20;;
787;SDS011;16074;42.708;23.312;2022-12-11T04:01:06;1.53;;;1.20;;
787;SDS011;16074;42.708;23.312;2022-12-11T04:03:35;1.98;;;1.15;;
787;SDS011;16074;42.708;23.312;2022-12-11T04:06:03;1.73;;;1.60;;
787;SDS011;16074;42.708;23.312;2022-12-11T04:08:32;1.47;;;1.37;;
787;SDS011;16074;42.708;23.312;2022-12-11T04:11:01;1.20;;;1.20;;
787;SDS011;16074;42.708;23.312;2022-12-11T04:13:48;5.50;;;1.20;;
787;SDS011;16074;42.708;23.312;2022-12-11T04:16:38;1.23;;;1.23;;
787;SDS011;16074;42.708;23.312;2022-12-11T04:19:05;1.33;;;1.33;;
787;SDS011;16074;42.708;23.312;2022-12-11T04:21:51;2.50;;;1.77;;
787;SDS011;16074;42.708;23.312;2022-12-11T04:24:36;1.80;;;1.30;;
787;SDS011;16074;42.708;23.312;2022-12-11T04:27:05;1.13;;;1.13;;
787;SDS011;16074;42.708;23.312;2022-12-11T04:29:33;2.93;;;1.40;;
787;SDS011;16074;42.708;23.312;2022-12-11T04:32:03;0.90;;;0.90;;
787;SDS011;16074;42.708;23.312;2022-12-11T04:34:31;1.30;;;1.30;;
787;SDS011;16074;42.708;23.312;2022-12-11T04:37:00;1.30;;;1.30;;
787;SDS011;16074;42.708;23.312;2022-12-11T04:39:28;1.47;;;1.30;;
787;SDS011;16074;42.708;23.312;2022-12-11T04:41:56;3.60;;;1.30;;
787;SDS011;16074;42.708;23.312;2022-12-11T04:44:24;2.73;;;2.20;;
787;SDS011;16074;42.708;23.312;2022-12-11T04:46:53;1.07;;;1.07;;
787;SDS011;16074;42.708;23.312;2022-12-11T04:49:22;5.73;;;2.27;;
787;SDS011;16074;42.708;23.312;2022-12-11T04:51:50;1.80;;;1.50;;
787;SDS011;16074;42.708;23.312;2022-12-11T04:54:19;0.70;;;0.70;;
787;SDS011;16074;42.708;23.312;2022-12-11T04:56:47;1.03;;;1.03;;
787;SDS011;16074;42.708;23.312;2022-12-11T04:59:15;3.23;;;1.23;;
787;SDS011;16074;42.708;23.312;2022-12-11T05:01:44;1.07;;;1.07;;
787;SDS011;16074;42.708;23.312;2022-12-11T05:04:13;0.63;;;0.63;;
787;SDS011;16074;42.708;23.312;2022-12-11T05:06:43;0.97;;;0.80;;
787;SDS011;16074;42.708;23.312;2022-12-11T05:09:11;1.00;;;1.00;;
787;SDS011;16074;42.708;23.312;2022-12-11T05:11:40;0.83;;;0.70;;
787;SDS011;16074;42.708;23.312;2022-12-11T05:14:08;1.57;;;1.10;;
787;SDS011;16074;42.708;23.312;2022-12-11T05:16:36;1.63;;;1.53;;
787;SDS011;16074;42.708;23.312;2022-12-11T05:19:04;1.00;;;0.87;;
787;SDS011;16074;42.708;23.312;2022-12-11T05:21:33;0.63;;;0.63;;
787;SDS011;16074;42.708;23.312;2022-12-11T05:24:03;1.20;;;1.20;;
787;SDS011;16074;42.708;23.312;2022-12-11T05:26:32;1.17;;;1.17;;
787;SDS011;16074;42.708;23.312;2022-12-11T05:29:00;6.30;;;5.87;;
787;SDS011;16074;42.708;23.312;2022-12-11T05:31:28;0.70;;;0.70;;
787;SDS011;16074;42.708;23.312;2022-12-11T05:33:57;0.87;;;0.70;;
787;SDS011;16074;42.708;23.312;2022-12-11T05:36:26;1.40;;;0.80;;
787;SDS011;16074;42.708;23.312;2022-12-11T05:38:55;0.80;;;0.80;;
787;SDS011;16074;42.708;23.312;2022-12-11T05:41:27;0.90;;;0.90;;
787;SDS011;16074;42.708;23.312;2022-12-11T05:43:56;1.40;;;1.03;;
787;SDS011;16074;42.708;23.312;2022-12-11T05:46:25;4.47;;;1.00;;
787;SDS011;16074;42.708;23.312;2022-12-11T05:48:56;1.10;;;1.10;;
787;SDS011;16074;42.708;23.312;2022-12-11T05:51:26;1.53;;;1.43;;
787;SDS011;16074;42.708;23.312;2022-12-11T05:53:56;2.13;;;1.93;;
787;SDS011;16074;42.708;23.312;2022-12-11T05:56:27;3.50;;;1.47;;
787;SDS011;16074;42.708;23.312;2022-12-11T05:58:57;4.23;;;1.50;;
787;SDS011;16074;42.708;23.312;2022-12-11T06:01:27;1.13;;;1.10;;
787;SDS011;16074;42.708;23.312;2022-12-11T06:03:58;3.03;;;2.73;;
787;SDS011;16074;42.708;23.312;2022-12-11T06:06:26;2.27;;;2.07;;
787;SDS011;16074;42.708;23.312;2022-12-11T06:08:55;2.20;;;1.90;;
787;SDS011;16074;42.708;23.312;2022-12-11T06:11:25;2.40;;;1.50;;
787;SDS011;16074;42.708;23.312;2022-12-11T06:13:56;1.87;;;1.77;;
787;SDS011;16074;42.708;23.312;2022-12-11T06:16:25;5.00;;;2.67;;
787;SDS011;16074;42.708;23.312;2022-12-11T06:18:53;2.00;;;1.90;;
787;SDS011;16074;42.708;23.312;2022-12-11T06:21:25;2.20;;;1.60;;
787;SDS011;16074;42.708;23.312;2022-12-11T06:23:55;1.90;;;1.37;;
787;SDS011;16074;42.708;23.312;2022-12-11T06:26:24;1.87;;;1.80;;
787;SDS011;16074;42.708;23.312;2022-12-11T06:28:54;1.90;;;1.20;;
787;SDS011;16074;42.708;23.312;2022-12-11T06:31:23;2.07;;;1.60;;
787;SDS011;16074;42.708;23.312;2022-12-11T06:33:51;4.63;;;1.90;;
787;SDS011;16074;42.708;23.312;2022-12-11T06:36:20;1.40;;;1.33;;
787;SDS011;16074;42.708;23.312;2022-12-11T06:38:50;3.07;;;2.53;;
787;SDS011;16074;42.708;23.312;2022-12-11T06:41:19;2.30;;;2.10;;
787;SDS011;16074;42.708;23.312;2022-12-11T06:43:48;2.20;;;1.83;;
787;SDS011;16074;42.708;23.312;2022-12-11T06:46:17;1.33;;;1.20;;
787;SDS011;16074;42.708;23.312;2022-12-11T06:48:47;4.30;;;2.33;;
787;SDS011;16074;42.708;23.312;2022-12-11T06:51:16;2.60;;;1.67;;
787;SDS011;16074;42.708;23.312;2022-12-11T06:53:49;4.30;;;2.50;;
787;SDS011;16074;42.708;23.312;2022-12-11T06:56:18;2.50;;;1.77;;
787;SDS011;16074;42.708;23.312;2022-12-11T06:58:48;2.93;;;1.87;;
787;SDS011;16074;42.708;23.312;2022-12-11T07:01:18;1.20;;;1.17;;
787;SDS011;16074;42.708;23.312;2022-12-11T07:03:51;2.40;;;1.93;;
787;SDS011;16074;42.708;23.312;2022-12-11T07:06:20;2.80;;;2.43;;
787;SDS011;16074;42.708;23.312;2022-12-11T07:08:48;2.40;;;1.80;;
787;SDS011;16074;42.708;23.312;2022-12-11T07:11:18;1.50;;;1.40;;
787;SDS011;16074;42.708;23.312;2022-12-11T07:13:48;0.70;;;0.70;;
787;SDS011;16074;42.708;23.312;2022-12-11T07:16:17;1.67;;;1.57;;
787;SDS011;16074;42.708;23.312;2022-12-11T07:18:46;1.37;;;1.27;;
787;SDS011;16074;42.708;23.312;2022-12-11T07:21:15;1.17;;;0.80;;
787;SDS011;16074;42.708;23.312;2022-12-11T07:23:45;1.20;;;1.20;;
787;SDS011;16074;42.708;23.312;2022-12-11T07:26:14;1.30;;;1.17;;
787;SDS011;16074;42.708;23.312;2022-12-11T07:28:43;1.30;;;0.70;;
787;SDS011;16074;42.708;23.312;2022-12-11T07:31:14;1.50;;;1.40;;
787;SDS011;16074;42.708;23.312;2022-12-11T07:33:43;3.20;;;1.83;;
787;SDS011;16074;42.708;23.312;2022-12-11T07:36:12;1.83;;;1.67;;
787;SDS011;16074;42.708;23.312;2022-12-11T07:38:41;2.27;;;2.10;;
787;SDS011;16074;42.708;23.312;2022-12-11T07:41:11;4.63;;;2.20;;
787;SDS011;16074;42.708;23.312;2022-12-11T07:43:40;1.27;;;1.23;;
787;SDS011;16074;42.708;23.312;2022-12-11T07:46:10;2.93;;;2.63;;
787;SDS011;16074;42.708;23.312;2022-12-11T07:48:42;4.77;;;2.70;;
787;SDS011;16074;42.708;23.312;2022-12-11T07:51:13;4.27;;;1.10;;
787;SDS011;16074;42.708;23.312;2022-12-11T07:53:42;1.77;;;1.67;;
787;SDS011;16074;42.708;23.312;2022-12-11T07:56:11;1.60;;;1.60;;
787;SDS011;16074;42.708;23.312;2022-12-11T07:58:41;29.60;;;13.47;;
787;SDS011;16074;42.708;23.312;2022-12-11T08:01:10;2.53;;;2.33;;
787;SDS011;16074;42.708;23.312;2022-12-11T08:03:39;1.37;;;1.30;;
787;SDS011;16074;42.708;23.312;2022-12-11T08:06:10;1.73;;;1.63;;
787;SDS011;16074;42.708;23.312;2022-12-11T08:08:39;2.60;;;1.70;;
787;SDS011;16074;42.708;23.312;2022-12-11T08:11:08;2.63;;;2.03;;
787;SDS011;16074;42.708;23.312;2022-12-11T08:13:39;1.80;;;1.70;;
787;SDS011;16074;42.708;23.312;2022-12-11T08:16:09;3.53;;;1.80;;
787;SDS011;16074;42.708;23.312;2022-12-11T08:18:39;2.37;;;1.87;;
787;SDS011;16074;42.708;23.312;2022-12-11T08:21:11;3.20;;;2.00;;
787;SDS011;16074;42.708;23.312;2022-12-11T08:23:40;4.10;;;1.93;;
787;SDS011;16074;42.708;23.312;2022-12-11T08:26:10;3.10;;;2.00;;
787;SDS011;16074;42.708;23.312;2022-12-11T08:28:40;1.80;;;1.70;;
787;SDS011;16074;42.708;23.312;2022-12-11T08:31:09;1.67;;;1.57;;
787;SDS011;16074;42.708;23.312;2022-12-11T08:33:39;2.50;;;2.03;;
787;SDS011;16074;42.708;23.312;2022-12-11T08:36:10;1.47;;;1.40;;
787;SDS011;16074;42.708;23.312;2022-12-11T08:38:39;1.20;;;1.20;;
787;SDS011;16074;42.708;23.312;2022-12-11T08:41:08;1.43;;;1.40;;
787;SDS011;16074;42.708;23.312;2022-12-11T08:43:37;1.80;;;0.97;;
787;SDS011;16074;42.708;23.312;2022-12-11T08:46:06;2.77;;;1.83;;
787;SDS011;16074;42.708;23.312;2022-12-11T08:48:35;1.87;;;1.70;;
787;SDS011;16074;42.708;23.312;2022-12-11T08:51:05;4.03;;;2.03;;
787;SDS011;16074;42.708;23.312;2022-12-11T08:53:36;4.00;;;3.70;;
787;SDS011;16074;42.708;23.312;2022-12-11T08:56:06;4.27;;;3.47;;
787;SDS011;16074;42.708;23.312;2022-12-11T08:58:36;4.80;;;3.80;;
787;SDS011;16074;42.708;23.312;2022-12-11T09:01:05;4.50;;;3.10;;
787;SDS011;16074;42.708;23.312;2022-12-11T09:03:34;3.63;;;3.33;;
787;SDS011;16074;42.708;23.312;2022-12-11T09:06:03;3.87;;;3.10;;
787;SDS011;16074;42.708;23.312;2022-12-11T09:08:32;2.70;;;2.60;;
787;SDS011;16074;42.708;23.312;2022-12-11T09:11:03;3.77;;;3.37;;
787;SDS011;16074;42.708;23.312;2022-12-11T09:13:33;3.63;;;3.33;;
787;SDS011;16074;42.708;23.312;2022-12-11T09:16:02;7.43;;;4.17;;
787;SDS011;16074;42.708;23.312;2022-12-11T09:18:31;3.80;;;2.70;;
787;SDS011;16074;42.708;23.312;2022-12-11T09:20:59;4.13;;;2.57;;
787;SDS011;16074;42.708;23.312;2022-12-11T09:23:28;3.00;;;2.80;;
787;SDS011;16074;42.708;23.312;2022-12-11T09:25:56;3.33;;;2.70;;
787;SDS011;16074;42.708;23.312;2022-12-11T09:28:26;3.43;;;2.30;;
787;SDS011;16074;42.708;23.312;2022-12-11T09:30:54;2.00;;;1.90;;
787;SDS011;16074;42.708;23.312;2022-12-11T09:33:22;2.80;;;2.60;;
787;SDS011;16074;42.708;23.312;2022-12-11T09:35:55;1.70;;;1.60;;
787;SDS011;16074;42.708;23.312;2022-12-11T09:38:25;6.33;;;2.67;;
787;SDS011;16074;42.708;23.312;2022-12-11T09:40:53;2.03;;;1.93;;
787;SDS011;16074;42.708;23.312;2022-12-11T09:43:28;2.60;;;2.40;;
787;SDS011;16074;42.708;23.312;2022-12-11T09:46:04;3.00;;;2.20;;
787;SDS011;16074;42.708;23.312;2022-12-11T09:48:37;2.27;;;1.43;;
787;SDS011;16074;42.708;23.312;2022-12-11T09:51:11;2.20;;;2.10;;
787;SDS011;16074;42.708;23.312;2022-12-11T09:53:45;3.43;;;1.87;;
787;SDS011;16074;42.708;23.312;2022-12-11T09:56:16;2.63;;;2.20;;
787;SDS011;16074;42.708;23.312;2022-12-11T09:58:55;2.67;;;2.47;;
787;SDS011;16074;42.708;23.312;2022-12-11T10:01:31;2.40;;;2.13;;
787;SDS011;16074;42.708;23.312;2022-12-11T10:04:14;2.33;;;1.80;;
787;SDS011;16074;42.708;23.312;2022-12-11T10:07:01;3.03;;;2.73;;
787;SDS011;16074;42.708;23.312;2022-12-11T10:09:38;1.83;;;1.73;;
787;SDS011;16074;42.708;23.312;2022-12-11T10:12:20;2.43;;;1.97;;
787;SDS011;16074;42.708;23.312;2022-12-11T10:15:08;3.53;;;2.23;;
787;SDS011;16074;42.708;23.312;2022-12-11T10:17:43;5.57;;;2.80;;
787;SDS011;16074;42.708;23.312;2022-12-11T10:20:20;1.97;;;1.87;;
787;SDS011;16074;42.708;23.312;2022-12-11T10:22:52;2.70;;;2.50;;
787;SDS011;16074;42.708;23.312;2022-12-11T10:25:23;2.13;;;2.03;;
787;SDS011;16074;42.708;23.312;2022-12-11T10:27:55;3.53;;;1.77;;
787;SDS011;16074;42.708;23.312;2022-12-11T10:30:25;2.70;;;2.30;;
787;SDS011;16074;42.708;23.312;2022-12-11T10:33:03;1.73;;;1.67;;
787;SDS011;16074;42.708;23.312;2022-12-11T10:35:42;2.50;;;2.17;;
787;SDS011;16074;42.708;23.312;2022-12-11T10:38:15;2.03;;;1.93;;
787;SDS011;16074;42.708;23.312;2022-12-11T10:40:48;2.70;;;1.97;;
787;SDS011;16074;42.708;23.312;2022-12-11T10:43:18;1.90;;;1.80;;
787;SDS011;16074;42.708;23.312;2022-12-11T10:45:51;1.70;;;1.60;;
787;SDS011;16074;42.708;23.312;2022-12-11T10:48:20;1.57;;;1.47;;
787;SDS011;16074;42.708;23.312;2022-12-11T10:50:56;2.13;;;2.03;;
787;SDS011;16074;42.708;23.312;2022-12-11T10:53:27;1.50;;;1.40;;
787;SDS011;16074;42.708;23.312;2022-12-11T10:55:56;3.40;;;3.10;;
787;SDS011;16074;42.708;23.312;2022-12-11T10:58:25;3.87;;;2.53;;
787;SDS011;16074;42.708;23.312;2022-12-11T11:01:03;3.03;;;2.83;;
787;SDS011;16074;42.708;23.312;2022-12-11T11:03:34;1.90;;;1.80;;
787;SDS011;16074;42.708;23.312;2022-12-11T11:06:05;3.37;;;3.00;;
787;SDS011;16074;42.708;23.312;2022-12-11T11:08:42;4.20;;;3.80;;
787;SDS011;16074;42.708;23.312;2022-12-11T11:11:15;3.00;;;2.70;;
787;SDS011;16074;42.708;23.312;2022-12-11T11:13:48;5.13;;;3.40;;
787;SDS011;16074;42.708;23.312;2022-12-11T11:16:19;3.67;;;3.10;;
787;SDS011;16074;42.708;23.312;2022-12-11T11:18:50;2.30;;;2.20;;
787;SDS011;16074;42.708;23.312;2022-12-11T11:21:21;2.47;;;2.37;;
787;SDS011;16074;42.708;23.312;2022-12-11T11:23:51;3.50;;;2.73;;
787;SDS011;16074;42.708;23.312;2022-12-11T11:26:20;3.23;;;2.97;;
787;SDS011;16074;42.708;23.312;2022-12-11T11:28:50;2.77;;;2.57;;
787;SDS011;16074;42.708;23.312;2022-12-11T11:31:30;3.57;;;3.20;;
787;SDS011;16074;42.708;23.312;2022-12-11T11:34:01;3.80;;;2.77;;
787;SDS011;16074;42.708;23.312;2022-12-11T11:36:34;5.10;;;2.70;;
787;SDS011;16074;42.708;23.312;2022-12-11T11:39:12;3.00;;;2.60;;
787;SDS011;16074;42.708;23.312;2022-12-11T11:41:48;3.13;;;2.90;;
787;SDS011;16074;42.708;23.312;2022-12-11T11:44:23;2.87;;;2.67;;
787;SDS011;16074;42.708;23.312;2022-12-11T11:46:59;2.13;;;1.83;;
787;SDS011;16074;42.708;23.312;2022-12-11T11:49:38;2.40;;;2.20;;
787;SDS011;16074;42.708;23.312;2022-12-11T11:52:16;5.40;;;4.90;;
787;SDS011;16074;42.708;23.312;2022-12-11T11:54:52;2.67;;;2.47;;
787;SDS011;16074;42.708;23.312;2022-12-11T11:57:31;2.13;;;2.03;;
787;SDS011;16074;42.708;23.312;2022-12-11T12:00:05;3.23;;;2.90;;
787;SDS011;16074;42.708;23.312;2022-12-11T12:02:43;4.80;;;2.90;;
787;SDS011;16074;42.708;23.312;2022-12-11T12:05:12;4.50;;;4.20;;
787;SDS011;16074;42.708;23.312;2022-12-11T12:07:43;2.97;;;2.77;;
787;SDS011;16074;42.708;23.312;2022-12-11T12:10:17;4.10;;;3.00;;
787;SDS011;16074;42.708;23.312;2022-12-11T12:12:50;2.93;;;2.67;;
787;SDS011;16074;42.708;23.312;2022-12-11T12:15:27;2.90;;;2.70;;
787;SDS011;16074;42.708;23.312;2022-12-11T12:18:08;3.60;;;3.30;;
787;SDS011;16074;42.708;23.312;2022-12-11T12:20:45;2.73;;;2.53;;
787;SDS011;16074;42.708;23.312;2022-12-11T12:23:32;2.30;;;2.20;;
787;SDS011;16074;42.708;23.312;2022-12-11T12:26:14;2.35;;;2.25;;
787;SDS011;16074;42.708;23.312;2022-12-11T12:28:51;2.65;;;2.45;;
787;SDS011;16074;42.708;23.312;2022-12-11T12:31:38;2.75;;;2.20;;
787;SDS011;16074;42.708;23.312;2022-12-11T12:34:18;2.05;;;1.95;;
787;SDS011;16074;42.708;23.312;2022-12-11T12:37:01;2.70;;;2.50;;
787;SDS011;16074;42.708;23.312;2022-12-11T12:39:38;2.28;;;2.17;;
787;SDS011;16074;42.708;23.312;2022-12-11T12:42:15;2.72;;;2.58;;
787;SDS011;16074;42.708;23.312;2022-12-11T12:44:51;2.22;;;2.13;;
787;SDS011;16074;42.708;23.312;2022-12-11T12:47:25;2.90;;;2.70;;
787;SDS011;16074;42.708;23.312;2022-12-11T12:49:57;3.00;;;2.72;;
787;SDS011;16074;42.708;23.312;2022-12-11T12:52:28;2.70;;;2.55;;
787;SDS011;16074;42.708;23.312;2022-12-11T12:54:59;2.80;;;2.60;;
787;SDS011;16074;42.708;23.312;2022-12-11T12:57:45;3.60;;;3.30;;
787;SDS011;16074;42.708;23.312;2022-12-11T13:00:26;3.10;;;2.90;;
787;SDS011;16074;42.708;23.312;2022-12-11T13:03:00;3.42;;;3.10;;
787;SDS011;16074;42.708;23.312;2022-12-11T13:05:40;2.53;;;2.33;;
787;SDS011;16074;42.708;23.312;2022-12-11T13:08:10;2.97;;;2.78;;
787;SDS011;16074;42.708;23.312;2022-12-11T13:10:39;2.58;;;2.47;;
787;SDS011;16074;42.708;23.312;2022-12-11T13:16:04;2.63;;;2.42;;
787;SDS011;16074;42.708;23.312;2022-12-11T13:18:35;2.20;;;2.10;;
787;SDS011;16074;42.708;23.312;2022-12-11T13:24:10;4.00;;;2.75;;
787;SDS011;16074;42.708;23.312;2022-12-11T13:26:40;3.15;;;2.30;;
787;SDS011;16074;42.708;23.312;2022-12-11T13:31:57;2.15;;;2.05;;
787;SDS011;16074;42.708;23.312;2022-12-11T13:34:27;1.98;;;1.88;;
787;SDS011;16074;42.708;23.312;2022-12-11T13:37:00;2.63;;;2.42;;
787;SDS011;16074;42.708;23.312;2022-12-11T13:39:31;3.13;;;2.90;;
787;SDS011;16074;42.708;23.312;2022-12-11T13:42:02;3.05;;;2.85;;
787;SDS011;16074;42.708;23.312;2022-12-11T13:44:33;2.92;;;2.67;;
787;SDS011;16074;42.708;23.312;2022-12-11T13:47:06;3.58;;;3.25;;
787;SDS011;16074;42.708;23.312;2022-12-11T13:49:41;2.10;;;2.00;;
787;SDS011;16074;42.708;23.312;2022-12-11T13:52:16;2.85;;;2.65;;
787;SDS011;16074;42.708;23.312;2022-12-11T13:54:47;3.03;;;2.83;;
787;SDS011;16074;42.708;23.312;2022-12-11T13:57:17;3.30;;;3.05;;
787;SDS011;16074;42.708;23.312;2022-12-11T13:59:48;3.40;;;3.10;;
787;SDS011;16074;42.708;23.312;2022-12-11T14:02:20;11.10;;;7.13;;
787;SDS011;16074;42.708;23.312;2022-12-11T14:04:53;2.92;;;2.72;;
787;SDS011;16074;42.708;23.312;2022-12-11T14:07:26;2.28;;;2.17;;
787;SDS011;16074;42.708;23.312;2022-12-11T14:10:00;3.40;;;3.15;;
787;SDS011;16074;42.708;23.312;2022-12-11T14:12:31;2.85;;;2.70;;
787;SDS011;16074;42.708;23.312;2022-12-11T14:14:59;4.80;;;3.30;;
787;SDS011;16074;42.708;23.312;2022-12-11T14:17:31;2.92;;;2.67;;
787;SDS011;16074;42.708;23.312;2022-12-11T14:20:02;4.38;;;3.45;;
787;SDS011;16074;42.708;23.312;2022-12-11T14:22:34;3.22;;;3.03;;
787;SDS011;16074;42.708;23.312;2022-12-11T14:25:15;4.97;;;3.88;;
787;SDS011;16074;42.708;23.312;2022-12-11T14:27:48;4.55;;;4.15;;
787;SDS011;16074;42.708;23.312;2022-12-11T14:30:19;3.55;;;3.30;;
787;SDS011;16074;42.708;23.312;2022-12-11T14:32:49;5.22;;;4.55;;
787;SDS011;16074;42.708;23.312;2022-12-11T14:35:22;3.92;;;3.28;;
787;SDS011;16074;42.708;23.312;2022-12-11T14:37:54;3.45;;;3.00;;
787;SDS011;16074;42.708;23.312;2022-12-11T14:40:25;3.85;;;3.33;;
787;SDS011;16074;42.708;23.312;2022-12-11T14:42:58;4.00;;;3.58;;
787;SDS011;16074;42.708;23.312;2022-12-11T14:45:34;3.20;;;2.75;;
787;SDS011;16074;42.708;23.312;2022-12-11T14:48:07;2.60;;;2.50;;
787;SDS011;16074;42.708;23.312;2022-12-11T14:50:41;2.90;;;2.70;;
787;SDS011;16074;42.708;23.312;2022-12-11T14:53:14;4.45;;;3.53;;
787;SDS011;16074;42.708;23.312;2022-12-11T14:55:46;5.65;;;4.80;;
787;SDS011;16074;42.708;23.312;2022-12-11T14:58:17;2.72;;;2.53;;
787;SDS011;16074;42.708;23.312;2022-12-11T15:00:55;2.63;;;2.45;;
787;SDS011;16074;42.708;23.312;2022-12-11T15:03:28;2.10;;;2.00;;
787;SDS011;16074;42.708;23.312;2022-12-11T15:05:59;5.85;;;3.72;;
787;SDS011;16074;42.708;23.312;2022-12-11T15:08:29;2.60;;;2.40;;
787;SDS011;16074;42.708;23.312;2022-12-11T15:11:01;2.53;;;2.33;;
787;SDS011;16074;42.708;23.312;2022-12-11T15:13:32;3.53;;;2.30;;
787;SDS011;16074;42.708;23.312;2022-12-11T15:16:01;2.60;;;2.40;;
787;SDS011;16074;42.708;23.312;2022-12-11T15:18:33;2.67;;;2.35;;
787;SDS011;16074;42.708;23.312;2022-12-11T15:21:03;3.53;;;3.22;;
787;SDS011;16074;42.708;23.312;2022-12-11T15:23:38;2.70;;;2.50;;
787;SDS011;16074;42.708;23.312;2022-12-11T15:26:16;3.28;;;2.58;;
787;SDS011;16074;42.708;23.312;2022-12-11T15:28:45;2.78;;;2.53;;
787;SDS011;16074;42.708;23.312;2022-12-11T15:31:22;4.63;;;4.18;;
787;SDS011;16074;42.708;23.312;2022-12-11T15:33:52;9.23;;;5.55;;
787;SDS011;16074;42.708;23.312;2022-12-11T15:36:22;4.85;;;4.25;;